createdAt,value
2023-05-06T00:02:01.756Z,4.28
2023-05-06T00:04:28.431Z,3.92
2023-05-06T00:06:56.796Z,4.40
2023-05-06T00:09:24.366Z,4.82
2023-05-06T00:11:51.511Z,4.07
2023-05-06T00:14:18.152Z,4.28
2023-05-06T00:16:45.054Z,3.78
2023-05-06T00:19:12.516Z,4.07
2023-05-06T00:21:39.161Z,3.80
2023-05-06T00:24:06.212Z,4.03
2023-05-06T00:26:32.860Z,4.78
2023-05-06T00:28:59.557Z,4.20
2023-05-06T00:31:26.161Z,3.75
2023-05-06T00:33:52.758Z,3.50
2023-05-06T00:36:19.479Z,3.42
2023-05-06T00:38:46.189Z,3.60
2023-05-06T00:41:12.820Z,3.92
2023-05-06T00:43:39.514Z,4.18
2023-05-06T00:46:10.770Z,3.92
2023-05-06T00:48:37.915Z,4.75
2023-05-06T00:51:04.733Z,3.85
2023-05-06T00:53:31.468Z,4.00
2023-05-06T00:56:00.976Z,4.88
2023-05-06T00:58:27.590Z,4.78
2023-05-06T01:00:55.368Z,3.78
2023-05-06T01:03:23.041Z,4.35
2023-05-06T01:06:06.445Z,3.70
2023-05-06T01:08:37.015Z,3.40
2023-05-06T01:11:16.582Z,3.47
2023-05-06T01:13:55.218Z,3.88
2023-05-06T01:16:23.552Z,4.80
2023-05-06T01:18:51.674Z,4.43
2023-05-06T01:21:19.283Z,3.83
2023-05-06T01:23:57.618Z,3.85
2023-05-06T01:26:25.002Z,4.32
2023-05-06T01:28:51.711Z,3.85
2023-05-06T01:31:43.537Z,3.72
2023-05-06T01:34:17.041Z,4.32
2023-05-06T01:37:03.302Z,4.40
2023-05-06T01:39:31.377Z,5.32
2023-05-06T01:41:59.307Z,4.03
2023-05-06T01:44:28.094Z,5.03
2023-05-06T01:46:55.245Z,5.55
2023-05-06T01:49:23.450Z,4.07
2023-05-06T01:51:51.361Z,5.22
2023-05-06T01:54:18.225Z,4.72
2023-05-06T01:56:44.969Z,4.05
2023-05-06T01:59:11.639Z,4.53
2023-05-06T02:01:38.329Z,4.63
2023-05-06T02:04:07.184Z,5.25
2023-05-06T02:06:34.248Z,3.92
2023-05-06T02:09:00.949Z,4.28
2023-05-06T02:11:29.751Z,5.07
2023-05-06T02:14:02.299Z,4.88
2023-05-06T02:16:31.501Z,4.25
2023-05-06T02:18:58.370Z,4.43
2023-05-06T02:21:25.120Z,4.13
2023-05-06T02:23:51.685Z,4.45
2023-05-06T02:26:18.378Z,4.65
2023-05-06T02:28:45.047Z,4.32
2023-05-06T02:31:16.147Z,3.55
2023-05-06T02:33:46.182Z,4.13
2023-05-06T02:36:12.821Z,4.18
2023-05-06T02:38:39.569Z,3.97
2023-05-06T02:41:06.280Z,4.32
2023-05-06T02:43:33.036Z,4.18
2023-05-06T02:45:59.681Z,3.80
2023-05-06T02:48:26.360Z,4.32
2023-05-06T02:50:53.005Z,4.75
2023-05-06T02:53:19.596Z,4.53
2023-05-06T02:55:46.574Z,3.90
2023-05-06T02:58:13.705Z,3.60
2023-05-06T03:00:40.296Z,3.78
2023-05-06T03:03:06.933Z,4.07
2023-05-06T03:05:33.687Z,4.65
2023-05-06T03:08:00.516Z,4.90
2023-05-06T03:10:27.149Z,4.93
2023-05-06T03:12:55.394Z,5.95
2023-05-06T03:15:22.253Z,4.10
2023-05-06T03:17:48.904Z,3.85
2023-05-06T03:20:16.187Z,3.95
2023-05-06T03:22:50.139Z,4.43
2023-05-06T03:25:18.289Z,3.42
2023-05-06T03:27:45.462Z,3.97
2023-05-06T03:30:17.762Z,3.30
2023-05-06T03:32:47.146Z,3.47
2023-05-06T03:35:17.831Z,3.60
2023-05-06T03:37:48.601Z,3.30
2023-05-06T03:40:16.269Z,3.45
2023-05-06T03:42:42.953Z,3.53
2023-05-06T03:45:10.011Z,3.40
2023-05-06T03:47:37.054Z,3.40
2023-05-06T03:50:05.880Z,3.22
2023-05-06T03:52:34.466Z,3.10
2023-05-06T03:55:01.198Z,3.40
2023-05-06T03:57:29.803Z,2.92
2023-05-06T03:59:57.005Z,3.05
2023-05-06T04:02:25.456Z,2.90
2023-05-06T04:04:52.225Z,3.45
2023-05-06T04:07:18.801Z,2.55
2023-05-06T04:09:45.530Z,3.00
2023-05-06T04:12:12.159Z,3.20
2023-05-06T04:14:39.752Z,3.05
2023-05-06T04:17:07.711Z,2.95
2023-05-06T04:19:34.580Z,2.85
2023-05-06T04:22:01.206Z,2.92
2023-05-06T04:24:31.366Z,2.75
2023-05-06T04:26:58.675Z,2.83
2023-05-06T04:29:27.069Z,3.15
2023-05-06T04:32:00.066Z,2.80
2023-05-06T04:34:29.310Z,2.72
2023-05-06T04:36:59.235Z,2.60
2023-05-06T04:39:37.085Z,3.38
2023-05-06T04:42:04.065Z,2.97
2023-05-06T04:44:38.263Z,3.38
2023-05-06T04:47:09.714Z,3.80
2023-05-06T04:49:38.298Z,3.15
2023-05-06T04:52:06.641Z,4.10
2023-05-06T04:54:33.746Z,3.88
2023-05-06T04:57:01.012Z,2.88
2023-05-06T04:59:28.341Z,2.92
2023-05-06T05:01:54.969Z,3.13
2023-05-06T05:04:21.566Z,2.80
2023-05-06T05:06:48.261Z,4.13
2023-05-06T05:09:15.641Z,3.83
2023-05-06T05:11:44.661Z,3.58
2023-05-06T05:14:11.295Z,2.60
2023-05-06T05:16:38.115Z,3.78
2023-05-06T05:19:08.260Z,2.90
2023-05-06T05:21:36.457Z,3.38
2023-05-06T05:24:04.559Z,2.70
2023-05-06T05:26:31.471Z,3.22
2023-05-06T05:28:59.725Z,3.00
2023-05-06T05:31:27.727Z,2.63
2023-05-06T05:33:55.195Z,2.55
2023-05-06T05:36:23.420Z,2.50
2023-05-06T05:38:53.345Z,4.32
2023-05-06T05:41:21.806Z,2.67
2023-05-06T05:43:48.873Z,2.35
2023-05-06T05:46:16.875Z,2.53
2023-05-06T05:48:45.628Z,2.10
2023-05-06T05:51:12.969Z,2.58
2023-05-06T05:53:40.137Z,2.17
2023-05-06T05:56:07.761Z,1.92
2023-05-06T05:58:34.596Z,2.15
2023-05-06T06:01:01.728Z,1.90
2023-05-06T06:03:28.939Z,2.35
2023-05-06T06:05:55.670Z,2.00
2023-05-06T06:08:24.194Z,2.10
2023-05-06T06:10:52.506Z,2.25
2023-05-06T06:13:23.914Z,2.10
2023-05-06T06:15:54.661Z,2.10
2023-05-06T06:18:21.460Z,5.40
2023-05-06T06:20:48.289Z,1.80
2023-05-06T06:23:15.383Z,1.65
2023-05-06T06:25:42.252Z,2.83
2023-05-06T06:28:09.000Z,1.70
2023-05-06T06:30:35.930Z,2.95
2023-05-06T06:33:02.643Z,1.63
2023-05-06T06:35:29.323Z,2.45
2023-05-06T06:37:56.127Z,2.60
2023-05-06T06:40:22.920Z,1.70
2023-05-06T06:42:49.591Z,1.85
2023-05-06T06:45:48.930Z,1.90
2023-05-06T06:48:16.454Z,2.50
2023-05-06T06:50:43.280Z,1.98
2023-05-06T06:53:10.335Z,2.00
2023-05-06T06:55:36.909Z,1.70
2023-05-06T06:58:03.672Z,1.70
2023-05-06T07:00:30.322Z,2.00
2023-05-06T07:02:56.930Z,1.63
2023-05-06T07:05:23.536Z,1.75
2023-05-06T07:07:50.091Z,1.50
2023-05-06T07:10:16.809Z,1.50
2023-05-06T07:12:43.413Z,1.70
2023-05-06T07:15:10.656Z,3.78
2023-05-06T07:17:37.430Z,2.13
2023-05-06T07:20:04.547Z,2.63
2023-05-06T07:22:31.197Z,2.80
2023-05-06T07:24:57.844Z,3.83
2023-05-06T07:27:24.435Z,2.97
2023-05-06T07:29:51.247Z,5.28
2023-05-06T07:32:17.898Z,3.20
2023-05-06T07:34:44.529Z,2.67
2023-05-06T07:37:11.137Z,3.13
2023-05-06T07:39:37.806Z,5.20
2023-05-06T07:42:04.505Z,3.05
2023-05-06T07:44:31.196Z,4.82
2023-05-06T07:46:57.900Z,5.03
2023-05-06T07:49:25.421Z,4.65
2023-05-06T07:51:52.005Z,9.07
2023-05-06T07:54:18.605Z,6.32
2023-05-06T07:56:45.513Z,6.97
2023-05-06T07:59:12.164Z,8.43
2023-05-06T08:01:38.736Z,7.65
2023-05-06T08:04:06.014Z,6.88
2023-05-06T08:06:33.111Z,8.85
2023-05-06T08:09:00.509Z,8.88
2023-05-06T08:11:27.098Z,8.85
2023-05-06T08:13:53.824Z,7.20
2023-05-06T08:16:21.613Z,8.02
2023-05-06T08:18:49.156Z,8.60
2023-05-06T08:21:15.856Z,8.77
2023-05-06T08:23:42.452Z,10.85
2023-05-06T08:26:09.017Z,10.18
2023-05-06T08:28:35.935Z,8.40
2023-05-06T08:31:02.527Z,10.18
2023-05-06T08:33:30.749Z,8.75
2023-05-06T08:35:58.831Z,8.15
2023-05-06T08:38:26.016Z,9.75
2023-05-06T08:40:53.759Z,12.00
2023-05-06T08:43:21.326Z,9.80
2023-05-06T08:45:49.660Z,10.45
2023-05-06T08:48:17.003Z,8.65
2023-05-06T08:50:44.151Z,9.27
2023-05-06T08:53:14.011Z,9.23
2023-05-06T08:55:42.098Z,8.32
2023-05-06T08:58:09.165Z,11.07
2023-05-06T09:00:35.850Z,8.40
2023-05-06T09:03:02.649Z,6.80
2023-05-06T09:05:29.339Z,6.60
2023-05-06T09:07:55.898Z,7.20
2023-05-06T09:10:22.495Z,7.03
2023-05-06T09:12:49.165Z,7.53
2023-05-06T09:15:16.377Z,7.68
2023-05-06T09:17:43.086Z,11.02
2023-05-06T09:20:12.018Z,8.02
2023-05-06T09:22:40.272Z,8.65
2023-05-06T09:25:07.429Z,7.30
2023-05-06T09:27:35.187Z,5.82
2023-05-06T09:30:06.008Z,5.93
2023-05-06T09:32:33.230Z,6.00
2023-05-06T09:35:00.243Z,6.05
2023-05-06T09:37:27.283Z,5.55
2023-05-06T09:39:59.754Z,6.38
2023-05-06T09:42:28.700Z,6.80
2023-05-06T09:44:58.154Z,6.28
2023-05-06T09:47:27.856Z,6.38
2023-05-06T09:50:00.819Z,4.80
2023-05-06T09:52:28.139Z,5.68
2023-05-06T09:54:55.369Z,4.43
2023-05-06T09:57:22.546Z,4.30
2023-05-06T09:59:52.193Z,6.05
2023-05-06T10:02:19.771Z,6.03
2023-05-06T10:04:48.954Z,4.55
2023-05-06T10:07:17.866Z,3.58
2023-05-06T10:09:45.067Z,4.40
2023-05-06T10:12:12.053Z,5.03
2023-05-06T10:14:39.052Z,4.65
2023-05-06T10:17:10.252Z,4.93
2023-05-06T10:19:40.787Z,4.32
2023-05-06T10:22:17.022Z,4.25
2023-05-06T10:24:53.293Z,5.03
2023-05-06T10:27:23.679Z,3.70
2023-05-06T10:29:53.185Z,4.20
2023-05-06T10:32:21.870Z,5.45
2023-05-06T10:34:54.232Z,4.40
2023-05-06T10:37:25.840Z,4.78
2023-05-06T10:39:56.405Z,4.88
2023-05-06T10:42:33.193Z,4.22
2023-05-06T10:45:03.355Z,3.60
2023-05-06T10:47:57.327Z,3.05
2023-05-06T10:50:25.483Z,4.38
2023-05-06T10:52:59.044Z,4.32
2023-05-06T10:55:33.577Z,3.28
2023-05-06T10:58:07.103Z,3.90
2023-05-06T11:00:34.650Z,4.80
2023-05-06T11:03:06.165Z,4.05
2023-05-06T11:05:46.305Z,3.63
2023-05-06T11:08:13.201Z,4.15
2023-05-06T11:10:39.903Z,4.35
2023-05-06T11:13:19.792Z,4.22
2023-05-06T11:15:46.763Z,2.40
2023-05-06T11:18:26.390Z,3.80
2023-05-06T11:21:00.554Z,3.55
2023-05-06T11:23:42.658Z,3.78
2023-05-06T11:26:10.418Z,4.10
2023-05-06T11:28:37.578Z,3.97
2023-05-06T11:31:04.623Z,4.05
2023-05-06T11:33:36.033Z,3.28
2023-05-06T11:36:03.733Z,3.50
2023-05-06T11:38:46.541Z,3.53
2023-05-06T11:41:14.036Z,3.83
2023-05-06T11:43:46.192Z,3.25
2023-05-06T11:46:12.961Z,3.67
2023-05-06T11:48:39.559Z,2.83
2023-05-06T11:51:06.181Z,3.38
2023-05-06T11:53:32.823Z,3.72
2023-05-06T11:55:59.463Z,3.97
2023-05-06T11:58:27.928Z,2.38
2023-05-06T12:00:59.357Z,3.53
2023-05-06T12:03:27.846Z,2.67
2023-05-06T12:05:55.061Z,2.47
2023-05-06T12:08:32.413Z,3.75
2023-05-06T12:11:03.580Z,3.90
2023-05-06T12:13:30.641Z,2.63
2023-05-06T12:16:00.462Z,4.45
2023-05-06T12:18:27.757Z,4.18
2023-05-06T12:20:55.093Z,2.55
2023-05-06T12:23:24.792Z,2.90
2023-05-06T12:26:04.782Z,3.53
2023-05-06T12:28:33.668Z,2.17
2023-05-06T12:31:01.980Z,3.40
2023-05-06T12:33:31.485Z,2.00
2023-05-06T12:36:06.799Z,2.30
2023-05-06T12:38:33.415Z,2.60
2023-05-06T12:41:00.135Z,2.63
2023-05-06T12:43:30.799Z,3.17
2023-05-06T12:46:05.249Z,2.13
2023-05-06T12:48:31.959Z,1.98
2023-05-06T12:50:58.560Z,2.25
2023-05-06T12:53:35.563Z,2.30
2023-05-06T12:56:02.207Z,2.33
2023-05-06T12:58:28.862Z,1.67
2023-05-06T13:00:55.448Z,2.88
2023-05-06T13:03:22.233Z,1.95
2023-05-06T13:05:50.293Z,2.30
2023-05-06T13:08:17.039Z,2.72
2023-05-06T13:10:43.601Z,1.85
2023-05-06T13:13:10.240Z,2.85
2023-05-06T13:15:37.343Z,2.65
2023-05-06T13:18:04.397Z,2.22
2023-05-06T13:20:32.406Z,2.00
2023-05-06T13:22:59.313Z,2.22
2023-05-06T13:25:25.867Z,2.00
2023-05-06T13:27:53.180Z,1.63
2023-05-06T13:30:19.809Z,1.75
2023-05-06T13:32:47.204Z,1.95
2023-05-06T13:35:13.853Z,2.08
2023-05-06T13:37:40.445Z,1.80
2023-05-06T13:40:08.706Z,3.63
2023-05-06T13:42:36.359Z,1.65
2023-05-06T13:45:03.029Z,3.50
2023-05-06T13:47:29.755Z,1.92
2023-05-06T13:49:56.391Z,1.73
2023-05-06T13:52:23.021Z,1.70
2023-05-06T13:54:49.688Z,1.52
2023-05-06T13:57:16.399Z,1.85
2023-05-06T13:59:43.090Z,1.58
2023-05-06T14:02:10.255Z,1.50
2023-05-06T14:04:36.943Z,1.98
2023-05-06T14:07:03.858Z,1.58
2023-05-06T14:09:31.061Z,1.33
2023-05-06T14:11:57.683Z,2.22
2023-05-06T14:14:24.220Z,2.30
2023-05-06T14:16:54.436Z,2.38
2023-05-06T14:19:21.224Z,2.28
2023-05-06T14:21:47.978Z,1.42
2023-05-06T14:24:14.683Z,1.48
2023-05-06T14:26:41.493Z,1.50
2023-05-06T14:29:08.266Z,1.52
2023-05-06T14:31:35.641Z,1.52
2023-05-06T14:34:02.737Z,2.08
2023-05-06T14:36:29.471Z,1.42
2023-05-06T14:38:56.154Z,1.35
2023-05-06T14:41:22.834Z,1.15
2023-05-06T14:43:49.418Z,4.80
2023-05-06T14:46:16.538Z,1.23
2023-05-06T14:48:43.685Z,1.27
2023-05-06T14:51:10.385Z,1.70
2023-05-06T14:53:36.960Z,1.00
2023-05-06T14:56:03.671Z,1.55
2023-05-06T14:58:30.299Z,1.52
2023-05-06T15:00:57.016Z,1.60
2023-05-06T15:03:23.672Z,1.50
2023-05-06T15:05:51.022Z,1.05
2023-05-06T15:08:17.785Z,1.23
2023-05-06T15:10:44.499Z,1.20
2023-05-06T15:13:11.154Z,1.60
2023-05-06T15:15:37.804Z,1.05
2023-05-06T15:18:04.618Z,1.17
2023-05-06T15:20:31.339Z,1.23
2023-05-06T15:22:57.933Z,1.15
2023-05-06T15:25:34.908Z,1.52
2023-05-06T15:28:02.227Z,1.75
2023-05-06T15:30:28.760Z,1.48
2023-05-06T15:32:55.395Z,1.35
2023-05-06T15:35:22.155Z,2.60
2023-05-06T15:37:48.818Z,1.25
2023-05-06T15:40:15.480Z,1.20
2023-05-06T15:42:42.051Z,1.20
2023-05-06T15:45:09.074Z,1.27
2023-05-06T15:47:35.696Z,0.90
2023-05-06T15:50:06.787Z,1.30
2023-05-06T15:52:37.779Z,1.67
2023-05-06T15:55:05.019Z,2.17
2023-05-06T15:57:31.629Z,2.33
2023-05-06T15:59:58.210Z,1.92
2023-05-06T16:02:27.352Z,1.05
2023-05-06T16:04:54.869Z,1.20
2023-05-06T16:07:21.709Z,1.20
2023-05-06T16:09:49.699Z,1.00
2023-05-06T16:12:16.466Z,0.90
2023-05-06T16:14:43.125Z,1.27
2023-05-06T16:17:09.731Z,1.23
2023-05-06T16:19:36.273Z,0.90
2023-05-06T16:22:03.701Z,0.98
2023-05-06T16:24:30.413Z,1.00
2023-05-06T16:26:57.001Z,1.02
2023-05-06T16:29:24.048Z,1.33
2023-05-06T16:31:51.150Z,0.80
2023-05-06T16:34:17.810Z,0.90
2023-05-06T16:36:44.665Z,1.13
2023-05-06T16:39:11.297Z,1.00
2023-05-06T16:41:37.908Z,1.60
2023-05-06T16:44:04.749Z,1.00
2023-05-06T16:46:33.157Z,1.75
2023-05-06T16:48:59.856Z,1.65
2023-05-06T16:51:26.511Z,0.98
2023-05-06T16:53:53.103Z,0.88
2023-05-06T16:56:19.813Z,1.30
2023-05-06T16:58:46.405Z,1.30
2023-05-06T17:01:13.055Z,1.02
2023-05-06T17:03:40.496Z,1.10
2023-05-06T17:06:07.842Z,1.08
2023-05-06T17:08:36.408Z,0.80
2023-05-06T17:11:06.238Z,1.10
2023-05-06T17:13:33.238Z,1.05
2023-05-06T17:15:59.858Z,1.15
2023-05-06T17:18:26.550Z,1.95
2023-05-06T17:20:56.385Z,1.35
2023-05-06T17:23:23.994Z,1.27
2023-05-06T17:25:50.975Z,1.02
2023-05-06T17:28:18.657Z,0.90
2023-05-06T17:30:45.994Z,1.33
2023-05-06T17:33:12.899Z,1.20
2023-05-06T17:35:39.663Z,1.00
2023-05-06T17:38:06.411Z,0.85
2023-05-06T17:40:33.008Z,0.95
2023-05-06T17:42:59.635Z,1.42
2023-05-06T17:45:28.240Z,1.25
2023-05-06T17:47:55.160Z,1.25
2023-05-06T17:50:22.712Z,0.98
2023-05-06T17:52:52.193Z,0.90
2023-05-06T17:55:21.524Z,1.45
2023-05-06T17:57:48.619Z,1.08
2023-05-06T18:00:16.652Z,1.60
2023-05-06T18:02:43.652Z,1.35
2023-05-06T18:05:11.381Z,1.38
2023-05-06T18:07:38.335Z,0.98
2023-05-06T18:10:05.783Z,0.90
2023-05-06T18:12:32.512Z,1.13
2023-05-06T18:15:00.241Z,1.65
2023-05-06T18:17:27.008Z,1.65
2023-05-06T18:19:53.674Z,1.02
2023-05-06T18:22:20.342Z,0.90
2023-05-06T18:24:46.975Z,0.80
2023-05-06T18:27:13.608Z,0.70
2023-05-06T18:29:41.310Z,0.98
2023-05-06T18:32:08.248Z,1.92
2023-05-06T18:34:35.024Z,0.93
2023-05-06T18:37:01.588Z,1.00
2023-05-06T18:39:28.324Z,0.80
2023-05-06T18:41:54.905Z,1.05
2023-05-06T18:44:21.564Z,0.80
2023-05-06T18:46:48.218Z,1.75
2023-05-06T18:49:14.813Z,2.40
2023-05-06T18:51:41.419Z,1.75
2023-05-06T18:54:08.428Z,1.75
2023-05-06T18:56:36.489Z,1.60
2023-05-06T18:59:03.163Z,2.25
2023-05-06T19:01:29.842Z,2.72
2023-05-06T19:03:56.877Z,2.22
2023-05-06T19:06:23.537Z,1.73
2023-05-06T19:08:50.153Z,2.00
2023-05-06T19:11:19.070Z,2.47
2023-05-06T19:13:46.281Z,1.95
2023-05-06T19:16:13.805Z,3.30
2023-05-06T19:18:40.669Z,3.28
2023-05-06T19:21:10.988Z,2.45
2023-05-06T19:23:37.619Z,2.28
2023-05-06T19:26:06.399Z,2.58
2023-05-06T19:28:34.205Z,3.38
2023-05-06T19:31:01.409Z,2.20
2023-05-06T19:33:28.324Z,1.88
2023-05-06T19:35:54.884Z,2.47
2023-05-06T19:38:21.638Z,3.03
2023-05-06T19:40:48.362Z,2.47
2023-05-06T19:43:15.036Z,1.92
2023-05-06T19:45:42.006Z,3.30
2023-05-06T19:48:08.945Z,2.63
2023-05-06T19:50:36.593Z,3.15
2023-05-06T19:53:03.419Z,4.28
2023-05-06T19:55:30.206Z,2.60
2023-05-06T19:57:57.048Z,3.97
2023-05-06T20:00:25.438Z,3.08
2023-05-06T20:02:52.180Z,3.17
2023-05-06T20:05:18.891Z,4.38
2023-05-06T20:07:45.884Z,4.68
2023-05-06T20:10:13.618Z,5.05
2023-05-06T20:12:43.634Z,2.90
2023-05-06T20:15:10.748Z,3.33
2023-05-06T20:17:37.852Z,3.75
2023-05-06T20:20:09.755Z,3.83
2023-05-06T20:22:37.928Z,3.90
2023-05-06T20:25:23.171Z,3.50
2023-05-06T20:27:49.804Z,5.70
2023-05-06T20:30:16.434Z,4.85
2023-05-06T20:32:43.187Z,3.40
2023-05-06T20:35:10.124Z,2.92
2023-05-06T20:37:36.880Z,4.25
2023-05-06T20:40:04.907Z,2.88
2023-05-06T20:42:31.766Z,4.95
2023-05-06T20:44:58.899Z,5.32
2023-05-06T20:47:25.880Z,4.82
2023-05-06T20:49:52.577Z,4.78
2023-05-06T20:52:19.288Z,3.13
2023-05-06T20:54:45.909Z,3.70
2023-05-06T20:57:14.255Z,4.90
2023-05-06T20:59:41.049Z,3.33
2023-05-06T21:02:07.730Z,3.85
2023-05-06T21:04:34.451Z,3.38
2023-05-06T21:07:01.123Z,3.35
2023-05-06T21:09:28.432Z,4.18
2023-05-06T21:11:55.958Z,3.08
2023-05-06T21:14:24.729Z,4.63
2023-05-06T21:16:52.055Z,4.45
2023-05-06T21:19:18.944Z,4.95
2023-05-06T21:21:45.698Z,4.68
2023-05-06T21:24:12.913Z,3.75
2023-05-06T21:26:39.783Z,2.30
2023-05-06T21:29:06.416Z,3.60
2023-05-06T21:31:33.113Z,4.70
2023-05-06T21:33:59.792Z,3.85
2023-05-06T21:36:27.147Z,3.92
2023-05-06T21:39:13.386Z,2.40
2023-05-06T21:41:40.681Z,2.90
2023-05-06T21:44:08.638Z,2.63
2023-05-06T21:46:36.721Z,3.97
2023-05-06T21:49:03.593Z,2.65
2023-05-06T21:51:32.515Z,3.72
2023-05-06T21:53:59.206Z,3.25
2023-05-06T21:56:25.995Z,2.20
2023-05-06T21:58:53.431Z,2.65
2023-05-06T22:01:20.288Z,2.53
2023-05-06T22:03:48.076Z,2.35
2023-05-06T22:06:15.554Z,3.72
2023-05-06T22:08:42.414Z,2.30
2023-05-06T22:11:09.037Z,3.80
2023-05-06T22:13:35.652Z,2.50
2023-05-06T22:16:02.758Z,2.78
2023-05-06T22:18:30.069Z,3.42
2023-05-06T22:20:57.778Z,2.00
2023-05-06T22:23:25.131Z,2.50
2023-05-06T22:25:52.130Z,2.00
2023-05-06T22:28:19.538Z,1.90
2023-05-06T22:30:46.331Z,2.80
2023-05-06T22:33:12.983Z,3.08
2023-05-06T22:35:39.621Z,2.30
2023-05-06T22:38:07.306Z,2.13
2023-05-06T22:40:33.973Z,3.50
2023-05-06T22:43:00.729Z,1.65
2023-05-06T22:45:27.344Z,2.60
2023-05-06T22:47:53.959Z,2.65
2023-05-06T22:50:20.676Z,1.98
2023-05-06T22:52:47.240Z,3.20
2023-05-06T22:55:14.893Z,1.65
2023-05-06T22:57:41.636Z,1.92
2023-05-06T23:00:10.527Z,1.42
2023-05-06T23:02:37.280Z,3.05
2023-05-06T23:05:04.279Z,1.85
2023-05-06T23:07:30.971Z,3.20
2023-05-06T23:09:59.492Z,2.25
2023-05-06T23:12:26.149Z,2.03
2023-05-06T23:14:52.836Z,1.50
2023-05-06T23:17:19.483Z,2.60
2023-05-06T23:19:46.160Z,2.55
2023-05-06T23:22:12.770Z,1.90
2023-05-06T23:24:39.534Z,2.53
2023-05-06T23:27:06.145Z,2.10
2023-05-06T23:29:32.748Z,2.22
2023-05-06T23:31:59.386Z,2.58
2023-05-06T23:34:27.407Z,1.98
2023-05-06T23:36:54.121Z,1.70
2023-05-06T23:39:21.803Z,3.22
2023-05-06T23:41:48.519Z,2.80
2023-05-06T23:44:15.451Z,2.70
2023-05-06T23:46:42.111Z,2.55
2023-05-06T23:49:09.094Z,2.05
2023-05-06T23:51:35.909Z,2.63
2023-05-06T23:54:02.562Z,2.42
2023-05-06T23:56:29.243Z,1.90
2023-05-06T23:58:55.985Z,2.83
